sensor_id;sensor_type;location;lat;lon;timestamp;pressure;altitude;pressure_sealevel;temperature;humidity
16544;BME280;8384;47.996;7.786;2023-02-15T00:01:51;100100.38;;;-0.69;100.00
16544;BME280;8384;47.996;7.786;2023-02-15T00:04:19;100149.75;;;-0.43;100.00
16544;BME280;8384;47.996;7.786;2023-02-15T00:06:44;100136.41;;;-0.53;100.00
16544;BME280;8384;47.996;7.786;2023-02-15T00:09:11;100146.72;;;-0.85;100.00
16544;BME280;8384;47.996;7.786;2023-02-15T00:11:36;100152.69;;;-0.91;100.00
16544;BME280;8384;47.996;7.786;2023-02-15T00:14:12;100148.22;;;-0.82;100.00
16544;BME280;8384;47.996;7.786;2023-02-15T00:16:39;100147.03;;;-0.70;100.00
16544;BME280;8384;47.996;7.786;2023-02-15T00:19:05;100130.59;;;-1.03;100.00
16544;BME280;8384;47.996;7.786;2023-02-15T00:21:32;100137.03;;;-0.96;100.00
16544;BME280;8384;47.996;7.786;2023-02-15T00:23:59;100145.25;;;-0.61;100.00
16544;BME280;8384;47.996;7.786;2023-02-15T00:26:25;100144.38;;;-0.43;100.00
16544;BME280;8384;47.996;7.786;2023-02-15T00:28:51;100110.88;;;-0.57;100.00
16544;BME280;8384;47.996;7.786;2023-02-15T00:31:17;100107.88;;;-0.91;100.00
16544;BME280;8384;47.996;7.786;2023-02-15T00:33:42;100142.53;;;-0.97;100.00
16544;BME280;8384;47.996;7.786;2023-02-15T00:36:09;100142.06;;;-1.11;100.00
16544;BME280;8384;47.996;7.786;2023-02-15T00:38:35;100137.75;;;-0.94;100.00
16544;BME280;8384;47.996;7.786;2023-02-15T00:41:03;100139.41;;;-0.93;100.00
16544;BME280;8384;47.996;7.786;2023-02-15T00:43:30;100148.59;;;-0.95;100.00
16544;BME280;8384;47.996;7.786;2023-02-15T00:45:56;100133.81;;;-1.27;100.00
16544;BME280;8384;47.996;7.786;2023-02-15T00:48:22;100136.13;;;-1.32;100.00
16544;BME280;8384;47.996;7.786;2023-02-15T00:50:53;100108.16;;;-1.30;100.00
16544;BME280;8384;47.996;7.786;2023-02-15T00:53:20;100133.16;;;-1.11;100.00
16544;BME280;8384;47.996;7.786;2023-02-15T00:55:45;100134.53;;;-1.25;100.00
16544;BME280;8384;47.996;7.786;2023-02-15T00:58:11;100123.59;;;-1.42;100.00
16544;BME280;8384;47.996;7.786;2023-02-15T01:00:38;100124.25;;;-1.58;100.00
16544;BME280;8384;47.996;7.786;2023-02-15T01:03:03;100113.88;;;-1.71;100.00
16544;BME280;8384;47.996;7.786;2023-02-15T01:05:29;100128.09;;;-1.60;100.00
16544;BME280;8384;47.996;7.786;2023-02-15T01:07:55;100111.88;;;-1.41;100.00
16544;BME280;8384;47.996;7.786;2023-02-15T01:10:21;100089.50;;;-1.49;100.00
16544;BME280;8384;47.996;7.786;2023-02-15T01:12:46;100129.50;;;-0.92;100.00
16544;BME280;8384;47.996;7.786;2023-02-15T01:15:11;100124.19;;;-1.20;100.00
16544;BME280;8384;47.996;7.786;2023-02-15T01:17:36;100123.22;;;-1.47;100.00
16544;BME280;8384;47.996;7.786;2023-02-15T01:20:02;100125.06;;;-1.47;100.00
16544;BME280;8384;47.996;7.786;2023-02-15T01:22:28;100134.78;;;-1.46;100.00
16544;BME280;8384;47.996;7.786;2023-02-15T01:24:53;100133.88;;;-1.09;100.00
16544;BME280;8384;47.996;7.786;2023-02-15T01:27:18;100137.25;;;-1.35;100.00
16544;BME280;8384;47.996;7.786;2023-02-15T01:29:44;100132.19;;;-1.38;100.00
16544;BME280;8384;47.996;7.786;2023-02-15T01:32:09;100111.75;;;-1.77;100.00
16544;BME280;8384;47.996;7.786;2023-02-15T01:34:34;100107.72;;;-1.91;100.00
16544;BME280;8384;47.996;7.786;2023-02-15T01:36:59;100091.81;;;-1.92;100.00
16544;BME280;8384;47.996;7.786;2023-02-15T01:39:25;100072.28;;;-2.13;100.00
16544;BME280;8384;47.996;7.786;2023-02-15T01:41:50;100135.38;;;-1.90;100.00
16544;BME280;8384;47.996;7.786;2023-02-15T01:44:45;100132.22;;;-1.76;100.00
16544;BME280;8384;47.996;7.786;2023-02-15T01:50:12;100131.38;;;-1.76;100.00
16544;BME280;8384;47.996;7.786;2023-02-15T01:53:00;100124.75;;;-1.82;100.00
16544;BME280;8384;47.996;7.786;2023-02-15T01:55:32;100122.16;;;-1.64;100.00
16544;BME280;8384;47.996;7.786;2023-02-15T01:57:59;100118.09;;;-1.40;100.00
16544;BME280;8384;47.996;7.786;2023-02-15T02:00:25;100119.88;;;-1.31;100.00
16544;BME280;8384;47.996;7.786;2023-02-15T02:02:53;100128.50;;;-1.65;100.00
16544;BME280;8384;47.996;7.786;2023-02-15T02:05:20;100098.03;;;-1.64;100.00
16544;BME280;8384;47.996;7.786;2023-02-15T02:07:46;100121.75;;;-1.41;100.00
16544;BME280;8384;47.996;7.786;2023-02-15T02:10:17;100126.34;;;-1.24;100.00
16544;BME280;8384;47.996;7.786;2023-02-15T02:12:45;100094.56;;;-1.46;100.00
16544;BME280;8384;47.996;7.786;2023-02-15T02:15:12;100115.28;;;-1.39;100.00
16544;BME280;8384;47.996;7.786;2023-02-15T02:18:04;100105.66;;;-1.69;100.00
16544;BME280;8384;47.996;7.786;2023-02-15T02:20:51;100112.19;;;-2.19;100.00
16544;BME280;8384;47.996;7.786;2023-02-15T02:23:33;100104.78;;;-2.45;100.00
16544;BME280;8384;47.996;7.786;2023-02-15T02:29:15;100102.06;;;-2.35;100.00
16544;BME280;8384;47.996;7.786;2023-02-15T02:32:05;100097.53;;;-2.25;100.00
16544;BME280;8384;47.996;7.786;2023-02-15T02:34:58;100080.13;;;-2.01;100.00
16544;BME280;8384;47.996;7.786;2023-02-15T02:37:37;100090.06;;;-1.84;100.00
16544;BME280;8384;47.996;7.786;2023-02-15T02:43:10;100097.97;;;-2.30;100.00
16544;BME280;8384;47.996;7.786;2023-02-15T02:45:53;100082.69;;;-2.09;100.00
16544;BME280;8384;47.996;7.786;2023-02-15T02:48:25;100086.13;;;-2.27;100.00
16544;BME280;8384;47.996;7.786;2023-02-15T02:50:52;100083.16;;;-2.34;100.00
16544;BME280;8384;47.996;7.786;2023-02-15T02:53:17;100063.69;;;-2.16;100.00
16544;BME280;8384;47.996;7.786;2023-02-15T02:55:55;100067.13;;;-1.96;100.00
16544;BME280;8384;47.996;7.786;2023-02-15T03:00:57;100090.38;;;-1.59;100.00
16544;BME280;8384;47.996;7.786;2023-02-15T03:03:37;100092.78;;;-1.93;100.00
16544;BME280;8384;47.996;7.786;2023-02-15T03:06:16;100100.38;;;-2.36;100.00
16544;BME280;8384;47.996;7.786;2023-02-15T03:08:47;100067.84;;;-2.42;100.00
16544;BME280;8384;47.996;7.786;2023-02-15T03:11:13;100093.84;;;-2.24;100.00
16544;BME280;8384;47.996;7.786;2023-02-15T03:13:39;100089.38;;;-2.33;100.00
16544;BME280;8384;47.996;7.786;2023-02-15T03:16:05;100091.06;;;-2.22;100.00
16544;BME280;8384;47.996;7.786;2023-02-15T03:18:59;100077.25;;;-2.28;100.00
16544;BME280;8384;47.996;7.786;2023-02-15T03:21:31;100095.63;;;-2.52;100.00
16544;BME280;8384;47.996;7.786;2023-02-15T03:24:03;100087.84;;;-2.26;100.00
16544;BME280;8384;47.996;7.786;2023-02-15T03:26:32;100097.84;;;-2.28;100.00
16544;BME280;8384;47.996;7.786;2023-02-15T03:29:02;100091.84;;;-2.79;100.00
16544;BME280;8384;47.996;7.786;2023-02-15T03:31:32;100086.47;;;-2.60;100.00
16544;BME280;8384;47.996;7.786;2023-02-15T03:34:03;100074.25;;;-2.92;100.00
16544;BME280;8384;47.996;7.786;2023-02-15T03:36:39;100073.38;;;-3.02;100.00
16544;BME280;8384;47.996;7.786;2023-02-15T03:39:35;100099.69;;;-2.78;100.00
16544;BME280;8384;47.996;7.786;2023-02-15T03:42:16;100089.13;;;-2.60;100.00
16544;BME280;8384;47.996;7.786;2023-02-15T03:45:06;100098.28;;;-2.43;100.00
16544;BME280;8384;47.996;7.786;2023-02-15T03:47:37;100100.66;;;-2.39;100.00
16544;BME280;8384;47.996;7.786;2023-02-15T03:50:16;100105.19;;;-2.30;100.00
16544;BME280;8384;47.996;7.786;2023-02-15T03:53:03;100074.22;;;-2.72;100.00
16544;BME280;8384;47.996;7.786;2023-02-15T03:55:31;100096.16;;;-2.49;100.00
16544;BME280;8384;47.996;7.786;2023-02-15T03:57:56;100099.72;;;-2.58;100.00
16544;BME280;8384;47.996;7.786;2023-02-15T04:00:45;100098.22;;;-2.23;100.00
16544;BME280;8384;47.996;7.786;2023-02-15T04:03:52;100103.09;;;-1.99;100.00
16544;BME280;8384;47.996;7.786;2023-02-15T04:06:20;100093.03;;;-2.24;100.00
16544;BME280;8384;47.996;7.786;2023-02-15T04:08:45;100100.34;;;-2.17;100.00
16544;BME280;8384;47.996;7.786;2023-02-15T04:11:30;100094.28;;;-2.19;100.00
16544;BME280;8384;47.996;7.786;2023-02-15T04:13:55;100092.41;;;-2.08;100.00
16544;BME280;8384;47.996;7.786;2023-02-15T04:16:22;100095.69;;;-2.15;100.00
16544;BME280;8384;47.996;7.786;2023-02-15T04:18:48;100093.81;;;-2.04;100.00
16544;BME280;8384;47.996;7.786;2023-02-15T04:21:32;100094.94;;;-2.07;100.00
16544;BME280;8384;47.996;7.786;2023-02-15T04:24:16;100063.28;;;-2.21;100.00
16544;BME280;8384;47.996;7.786;2023-02-15T04:27:00;100091.50;;;-2.47;100.00
16544;BME280;8384;47.996;7.786;2023-02-15T04:29:26;100094.38;;;-2.68;100.00
16544;BME280;8384;47.996;7.786;2023-02-15T04:31:56;100058.75;;;-2.98;100.00
16544;BME280;8384;47.996;7.786;2023-02-15T04:34:21;100066.19;;;-2.62;100.00
16544;BME280;8384;47.996;7.786;2023-02-15T04:36:46;100093.22;;;-2.56;100.00
16544;BME280;8384;47.996;7.786;2023-02-15T04:39:13;100070.00;;;-2.65;100.00
16544;BME280;8384;47.996;7.786;2023-02-15T04:41:38;100063.03;;;-2.48;100.00
16544;BME280;8384;47.996;7.786;2023-02-15T04:44:04;100073.38;;;-2.53;100.00
16544;BME280;8384;47.996;7.786;2023-02-15T04:46:29;100081.63;;;-2.27;100.00
16544;BME280;8384;47.996;7.786;2023-02-15T04:48:55;100080.84;;;-2.09;100.00
16544;BME280;8384;47.996;7.786;2023-02-15T04:51:20;100079.66;;;-1.87;100.00
16544;BME280;8384;47.996;7.786;2023-02-15T04:53:46;100068.84;;;-2.52;100.00
16544;BME280;8384;47.996;7.786;2023-02-15T04:56:11;100070.00;;;-2.65;100.00
16544;BME280;8384;47.996;7.786;2023-02-15T04:58:36;100079.16;;;-2.87;100.00
16544;BME280;8384;47.996;7.786;2023-02-15T05:01:06;100078.47;;;-2.99;100.00
16544;BME280;8384;47.996;7.786;2023-02-15T05:03:31;100075.50;;;-2.86;100.00
16544;BME280;8384;47.996;7.786;2023-02-15T05:05:56;100075.47;;;-2.66;100.00
16544;BME280;8384;47.996;7.786;2023-02-15T05:08:22;100074.19;;;-2.43;100.00
16544;BME280;8384;47.996;7.786;2023-02-15T05:10:48;100085.00;;;-2.24;100.00
16544;BME280;8384;47.996;7.786;2023-02-15T05:13:14;100063.78;;;-2.56;100.00
16544;BME280;8384;47.996;7.786;2023-02-15T05:15:39;100064.38;;;-3.01;100.00
16544;BME280;8384;47.996;7.786;2023-02-15T05:18:05;100065.03;;;-3.28;100.00
16544;BME280;8384;47.996;7.786;2023-02-15T05:20:31;100074.38;;;-2.83;100.00
16544;BME280;8384;47.996;7.786;2023-02-15T05:22:56;100079.72;;;-2.83;100.00
16544;BME280;8384;47.996;7.786;2023-02-15T05:25:21;100057.19;;;-2.91;100.00
16544;BME280;8384;47.996;7.786;2023-02-15T05:28:08;100072.81;;;-2.66;100.00
16544;BME280;8384;47.996;7.786;2023-02-15T05:30:50;100079.66;;;-2.34;100.00
16544;BME280;8384;47.996;7.786;2023-02-15T05:33:16;100074.53;;;-2.95;100.00
16544;BME280;8384;47.996;7.786;2023-02-15T05:35:41;100081.13;;;-3.19;100.00
16544;BME280;8384;47.996;7.786;2023-02-15T05:38:07;100078.78;;;-3.63;100.00
16544;BME280;8384;47.996;7.786;2023-02-15T05:40:32;100039.25;;;-3.59;100.00
16544;BME280;8384;47.996;7.786;2023-02-15T05:42:57;100086.41;;;-3.48;100.00
16544;BME280;8384;47.996;7.786;2023-02-15T05:45:23;100066.91;;;-3.80;100.00
16544;BME280;8384;47.996;7.786;2023-02-15T05:47:49;100089.56;;;-3.74;100.00
16544;BME280;8384;47.996;7.786;2023-02-15T05:50:14;100098.81;;;-3.78;100.00
16544;BME280;8384;47.996;7.786;2023-02-15T05:52:39;100064.34;;;-3.91;100.00
16544;BME280;8384;47.996;7.786;2023-02-15T05:55:05;100102.53;;;-3.19;100.00
16544;BME280;8384;47.996;7.786;2023-02-15T05:57:31;100092.81;;;-3.10;100.00
16544;BME280;8384;47.996;7.786;2023-02-15T05:59:56;100096.19;;;-2.98;100.00
16544;BME280;8384;47.996;7.786;2023-02-15T06:02:22;100074.09;;;-3.00;100.00
16544;BME280;8384;47.996;7.786;2023-02-15T06:04:47;100110.72;;;-2.81;100.00
16544;BME280;8384;47.996;7.786;2023-02-15T06:07:12;100103.94;;;-2.85;100.00
16544;BME280;8384;47.996;7.786;2023-02-15T06:09:37;100070.28;;;-2.97;100.00
16544;BME280;8384;47.996;7.786;2023-02-15T06:12:03;100097.91;;;-2.87;100.00
16544;BME280;8384;47.996;7.786;2023-02-15T06:14:28;100082.91;;;-3.39;100.00
16544;BME280;8384;47.996;7.786;2023-02-15T06:16:53;100094.19;;;-3.25;100.00
16544;BME280;8384;47.996;7.786;2023-02-15T06:19:19;100075.16;;;-3.52;100.00
16544;BME280;8384;47.996;7.786;2023-02-15T06:21:44;100105.31;;;-3.30;100.00
16544;BME280;8384;47.996;7.786;2023-02-15T06:24:09;100087.69;;;-3.42;100.00
16544;BME280;8384;47.996;7.786;2023-02-15T06:26:35;100106.13;;;-3.29;100.00
16544;BME280;8384;47.996;7.786;2023-02-15T06:29:00;100082.56;;;-3.65;100.00
16544;BME280;8384;47.996;7.786;2023-02-15T06:31:25;100082.81;;;-3.68;100.00
16544;BME280;8384;47.996;7.786;2023-02-15T06:33:51;100109.44;;;-3.67;100.00
16544;BME280;8384;47.996;7.786;2023-02-15T06:36:16;100112.19;;;-3.37;100.00
16544;BME280;8384;47.996;7.786;2023-02-15T06:38:41;100109.00;;;-3.62;100.00
16544;BME280;8384;47.996;7.786;2023-02-15T06:41:07;100108.44;;;-3.66;100.00
16544;BME280;8384;47.996;7.786;2023-02-15T06:43:32;100114.31;;;-3.72;100.00
16544;BME280;8384;47.996;7.786;2023-02-15T06:45:59;100115.56;;;-3.76;100.00
16544;BME280;8384;47.996;7.786;2023-02-15T06:48:24;100116.16;;;-3.72;100.00
16544;BME280;8384;47.996;7.786;2023-02-15T06:50:49;100117.75;;;-3.60;100.00
16544;BME280;8384;47.996;7.786;2023-02-15T06:53:14;100093.31;;;-3.45;100.00
16544;BME280;8384;47.996;7.786;2023-02-15T06:55:40;100101.72;;;-3.50;100.00
16544;BME280;8384;47.996;7.786;2023-02-15T06:58:05;100106.13;;;-3.39;100.00
16544;BME280;8384;47.996;7.786;2023-02-15T07:00:30;100098.66;;;-3.45;100.00
16544;BME280;8384;47.996;7.786;2023-02-15T07:02:57;100123.06;;;-3.19;100.00
16544;BME280;8384;47.996;7.786;2023-02-15T07:05:24;100101.75;;;-3.40;100.00
16544;BME280;8384;47.996;7.786;2023-02-15T07:07:50;100095.06;;;-3.05;100.00
16544;BME280;8384;47.996;7.786;2023-02-15T07:10:15;100101.72;;;-2.80;100.00
16544;BME280;8384;47.996;7.786;2023-02-15T07:12:40;100095.34;;;-2.59;100.00
16544;BME280;8384;47.996;7.786;2023-02-15T07:15:06;100116.03;;;-2.42;100.00
16544;BME280;8384;47.996;7.786;2023-02-15T07:17:33;100129.84;;;-2.46;100.00
16544;BME280;8384;47.996;7.786;2023-02-15T07:19:58;100133.94;;;-2.62;100.00
16544;BME280;8384;47.996;7.786;2023-02-15T07:22:23;100102.25;;;-2.96;100.00
16544;BME280;8384;47.996;7.786;2023-02-15T07:24:48;100129.44;;;-2.51;100.00
16544;BME280;8384;47.996;7.786;2023-02-15T07:27:14;100124.50;;;-2.86;100.00
16544;BME280;8384;47.996;7.786;2023-02-15T07:29:39;100119.63;;;-3.41;100.00
16544;BME280;8384;47.996;7.786;2023-02-15T07:32:05;100116.28;;;-3.23;100.00
16544;BME280;8384;47.996;7.786;2023-02-15T07:34:30;100097.72;;;-3.25;100.00
16544;BME280;8384;47.996;7.786;2023-02-15T07:36:55;100114.88;;;-3.27;100.00
16544;BME280;8384;47.996;7.786;2023-02-15T07:39:21;100090.13;;;-3.10;100.00
16544;BME280;8384;47.996;7.786;2023-02-15T07:41:46;100095.78;;;-2.93;100.00
16544;BME280;8384;47.996;7.786;2023-02-15T07:44:12;100110.81;;;-2.63;100.00
16544;BME280;8384;47.996;7.786;2023-02-15T07:46:41;100094.38;;;-2.58;100.00
16544;BME280;8384;47.996;7.786;2023-02-15T07:49:06;100067.88;;;-2.61;100.00
16544;BME280;8384;47.996;7.786;2023-02-15T07:51:32;100110.91;;;-2.25;100.00
16544;BME280;8384;47.996;7.786;2023-02-15T07:53:57;100060.53;;;-2.49;100.00
16544;BME280;8384;47.996;7.786;2023-02-15T07:56:22;100096.63;;;-2.06;100.00
16544;BME280;8384;47.996;7.786;2023-02-15T07:58:47;100098.16;;;-1.93;100.00
16544;BME280;8384;47.996;7.786;2023-02-15T08:01:17;100102.66;;;-2.51;100.00
16544;BME280;8384;47.996;7.786;2023-02-15T08:03:42;100078.97;;;-2.36;100.00
16544;BME280;8384;47.996;7.786;2023-02-15T08:06:07;100105.31;;;-2.32;100.00
16544;BME280;8384;47.996;7.786;2023-02-15T08:08:34;100090.56;;;-2.75;100.00
16544;BME280;8384;47.996;7.786;2023-02-15T08:11:04;100098.59;;;-2.65;100.00
16544;BME280;8384;47.996;7.786;2023-02-15T08:13:51;100109.56;;;-2.59;100.00
16544;BME280;8384;47.996;7.786;2023-02-15T08:16:24;100109.16;;;-2.74;100.00
16544;BME280;8384;47.996;7.786;2023-02-15T08:18:51;100103.38;;;-2.69;100.00
16544;BME280;8384;47.996;7.786;2023-02-15T08:21:17;100104.38;;;-2.60;100.00
16544;BME280;8384;47.996;7.786;2023-02-15T08:23:43;100071.25;;;-2.98;100.00
16544;BME280;8384;47.996;7.786;2023-02-15T08:26:08;100077.75;;;-3.21;100.00
16544;BME280;8384;47.996;7.786;2023-02-15T08:28:33;100119.41;;;-2.98;100.00
16544;BME280;8384;47.996;7.786;2023-02-15T08:31:10;100114.22;;;-2.80;100.00
16544;BME280;8384;47.996;7.786;2023-02-15T08:33:37;100098.56;;;-2.46;100.00
16544;BME280;8384;47.996;7.786;2023-02-15T08:36:07;100040.25;;;-2.62;100.00
16544;BME280;8384;47.996;7.786;2023-02-15T08:38:33;100076.25;;;-2.27;100.00
16544;BME280;8384;47.996;7.786;2023-02-15T08:41:41;100089.81;;;-2.28;100.00
16544;BME280;8384;47.996;7.786;2023-02-15T08:44:01;100077.72;;;-2.52;100.00
16544;BME280;8384;47.996;7.786;2023-02-15T08:46:29;100093.91;;;-1.96;100.00
16544;BME280;8384;47.996;7.786;2023-02-15T08:48:55;100065.97;;;-1.84;100.00
16544;BME280;8384;47.996;7.786;2023-02-15T08:51:23;100083.63;;;-1.63;100.00
16544;BME280;8384;47.996;7.786;2023-02-15T08:53:52;100081.63;;;-1.89;100.00
16544;BME280;8384;47.996;7.786;2023-02-15T08:56:20;100074.78;;;-1.45;100.00
16544;BME280;8384;47.996;7.786;2023-02-15T08:58:45;100079.00;;;-0.97;100.00
16544;BME280;8384;47.996;7.786;2023-02-15T09:01:13;100076.34;;;-0.70;100.00
16544;BME280;8384;47.996;7.786;2023-02-15T09:03:43;100058.19;;;-1.13;100.00
16544;BME280;8384;47.996;7.786;2023-02-15T09:06:08;100063.25;;;-0.92;100.00
16544;BME280;8384;47.996;7.786;2023-02-15T09:08:34;100079.72;;;-0.86;100.00
16544;BME280;8384;47.996;7.786;2023-02-15T09:13:38;100078.31;;;-0.36;100.00
16544;BME280;8384;47.996;7.786;2023-02-15T09:16:06;100072.34;;;-0.22;99.25
16544;BME280;8384;47.996;7.786;2023-02-15T09:18:35;100081.13;;;-0.82;97.35
16544;BME280;8384;47.996;7.786;2023-02-15T09:21:15;100071.84;;;-1.06;97.96
16544;BME280;8384;47.996;7.786;2023-02-15T09:23:42;100065.09;;;-1.10;99.98
16544;BME280;8384;47.996;7.786;2023-02-15T09:26:19;100066.00;;;-0.39;99.18
16544;BME280;8384;47.996;7.786;2023-02-15T09:28:45;100049.47;;;-0.26;96.14
16544;BME280;8384;47.996;7.786;2023-02-15T09:31:13;100072.34;;;0.05;95.33
16544;BME280;8384;47.996;7.786;2023-02-15T09:33:41;100077.84;;;0.29;95.20
16544;BME280;8384;47.996;7.786;2023-02-15T09:36:27;100077.16;;;0.01;94.33
16544;BME280;8384;47.996;7.786;2023-02-15T09:39:04;100077.91;;;-0.41;95.73
16544;BME280;8384;47.996;7.786;2023-02-15T09:50:11;100063.50;;;-0.85;100.00
16544;BME280;8384;47.996;7.786;2023-02-15T09:53:33;100067.72;;;-0.11;100.00
16544;BME280;8384;47.996;7.786;2023-02-15T09:56:18;100052.31;;;-0.27;98.21
16544;BME280;8384;47.996;7.786;2023-02-15T09:58:55;100078.09;;;0.18;96.68
16544;BME280;8384;47.996;7.786;2023-02-15T10:01:36;100074.50;;;0.44;95.77
16544;BME280;8384;47.996;7.786;2023-02-15T10:04:20;100081.59;;;0.45;94.27
16544;BME280;8384;47.996;7.786;2023-02-15T10:09:54;100074.88;;;0.49;95.08
16544;BME280;8384;47.996;7.786;2023-02-15T10:25:46;100071.03;;;-0.44;100.00
16544;BME280;8384;47.996;7.786;2023-02-15T10:28:19;100042.66;;;-0.12;100.00
16544;BME280;8384;47.996;7.786;2023-02-15T10:30:48;100065.75;;;0.34;97.40
16544;BME280;8384;47.996;7.786;2023-02-15T10:33:37;100044.00;;;0.19;97.10
16544;BME280;8384;47.996;7.786;2023-02-15T10:38:37;100069.41;;;0.24;97.66
16544;BME280;8384;47.996;7.786;2023-02-15T10:57:26;100046.06;;;1.34;92.29
16544;BME280;8384;47.996;7.786;2023-02-15T11:00:03;100044.88;;;1.45;92.20
16544;BME280;8384;47.996;7.786;2023-02-15T11:05:24;100020.41;;;1.79;91.20
16544;BME280;8384;47.996;7.786;2023-02-15T11:07:54;100022.81;;;2.14;90.30
16544;BME280;8384;47.996;7.786;2023-02-15T11:10:36;99992.38;;;2.37;88.34
16544;BME280;8384;47.996;7.786;2023-02-15T11:13:14;100009.75;;;2.89;87.00
16544;BME280;8384;47.996;7.786;2023-02-15T11:15:49;100012.00;;;2.85;86.51
16544;BME280;8384;47.996;7.786;2023-02-15T11:18:25;100014.66;;;3.09;83.68
16544;BME280;8384;47.996;7.786;2023-02-15T11:21:07;99972.72;;;2.98;83.80
16544;BME280;8384;47.996;7.786;2023-02-15T11:23:36;99989.97;;;3.35;82.49
16544;BME280;8384;47.996;7.786;2023-02-15T11:26:13;99978.16;;;2.75;83.41
16544;BME280;8384;47.996;7.786;2023-02-15T11:28:45;99942.44;;;2.09;86.96
16544;BME280;8384;47.996;7.786;2023-02-15T11:31:21;99965.94;;;1.92;90.28
16544;BME280;8384;47.996;7.786;2023-02-15T11:34:00;99972.69;;;1.88;90.56
16544;BME280;8384;47.996;7.786;2023-02-15T11:36:33;99981.50;;;1.82;92.54
16544;BME280;8384;47.996;7.786;2023-02-15T11:39:04;99949.81;;;1.76;92.58
16544;BME280;8384;47.996;7.786;2023-02-15T11:41:34;99960.03;;;1.97;92.96
16544;BME280;8384;47.996;7.786;2023-02-15T11:44:15;99949.97;;;1.74;93.95
16544;BME280;8384;47.996;7.786;2023-02-15T11:46:41;99942.91;;;1.73;93.43
16544;BME280;8384;47.996;7.786;2023-02-15T11:49:29;99954.56;;;1.74;94.21
16544;BME280;8384;47.996;7.786;2023-02-15T11:51:56;99947.56;;;1.96;94.01
16544;BME280;8384;47.996;7.786;2023-02-15T11:54:27;99951.53;;;2.40;92.70
16544;BME280;8384;47.996;7.786;2023-02-15T11:56:56;99946.41;;;3.15;89.54
16544;BME280;8384;47.996;7.786;2023-02-15T11:59:31;99942.47;;;3.03;88.73
16544;BME280;8384;47.996;7.786;2023-02-15T12:01:57;99944.06;;;3.65;88.11
16544;BME280;8384;47.996;7.786;2023-02-15T12:04:28;99936.34;;;4.14;85.81
16544;BME280;8384;47.996;7.786;2023-02-15T12:06:59;99919.47;;;4.12;84.80
16544;BME280;8384;47.996;7.786;2023-02-15T12:09:34;99933.84;;;4.92;81.63
16544;BME280;8384;47.996;7.786;2023-02-15T12:12:23;99930.53;;;4.54;81.19
16544;BME280;8384;47.996;7.786;2023-02-15T12:14:50;99930.69;;;5.17;78.13
16544;BME280;8384;47.996;7.786;2023-02-15T12:17:17;99905.03;;;4.63;80.48
16544;BME280;8384;47.996;7.786;2023-02-15T12:19:42;99902.22;;;4.56;82.50
16544;BME280;8384;47.996;7.786;2023-02-15T12:22:23;99887.88;;;4.56;81.96
16544;BME280;8384;47.996;7.786;2023-02-15T12:24:50;99903.22;;;4.48;82.07
16544;BME280;8384;47.996;7.786;2023-02-15T12:27:22;99907.38;;;4.94;80.45
16544;BME280;8384;47.996;7.786;2023-02-15T12:29:56;99903.00;;;5.22;79.70
16544;BME280;8384;47.996;7.786;2023-02-15T12:32:26;99900.28;;;5.22;79.78
16544;BME280;8384;47.996;7.786;2023-02-15T12:34:59;99900.56;;;5.69;78.13
16544;BME280;8384;47.996;7.786;2023-02-15T12:37:27;99898.56;;;5.43;78.99
16544;BME280;8384;47.996;7.786;2023-02-15T12:39:58;99875.66;;;5.52;78.94
16544;BME280;8384;47.996;7.786;2023-02-15T12:42:25;99873.56;;;5.19;79.02
16544;BME280;8384;47.996;7.786;2023-02-15T12:45:01;99886.41;;;5.03;81.19
16544;BME280;8384;47.996;7.786;2023-02-15T12:47:28;99862.91;;;5.10;81.08
16544;BME280;8384;47.996;7.786;2023-02-15T12:52:41;99876.63;;;5.09;81.30
16544;BME280;8384;47.996;7.786;2023-02-15T12:55:18;99877.06;;;5.41;81.71
16544;BME280;8384;47.996;7.786;2023-02-15T12:57:44;99878.50;;;5.44;80.90
16544;BME280;8384;47.996;7.786;2023-02-15T13:02:47;99874.84;;;5.51;80.61
16544;BME280;8384;47.996;7.786;2023-02-15T13:05:26;99874.56;;;5.39;81.54
16544;BME280;8384;47.996;7.786;2023-02-15T13:07:57;99865.81;;;5.44;80.83
16544;BME280;8384;47.996;7.786;2023-02-15T13:10:25;99872.00;;;5.73;79.83
16544;BME280;8384;47.996;7.786;2023-02-15T13:12:52;99871.63;;;5.76;79.33
16544;BME280;8384;47.996;7.786;2023-02-15T13:15:25;99872.25;;;5.78;78.80
16544;BME280;8384;47.996;7.786;2023-02-15T13:17:51;99861.81;;;5.82;78.23
16544;BME280;8384;47.996;7.786;2023-02-15T13:20:20;99845.66;;;6.02;78.03
16544;BME280;8384;47.996;7.786;2023-02-15T13:22:50;99854.72;;;6.43;76.79
16544;BME280;8384;47.996;7.786;2023-02-15T13:25:20;99847.19;;;6.45;76.27
16544;BME280;8384;47.996;7.786;2023-02-15T13:27:51;99846.34;;;6.44;75.38
16544;BME280;8384;47.996;7.786;2023-02-15T13:30:25;99854.53;;;6.58;74.96
16544;BME280;8384;47.996;7.786;2023-02-15T13:32:57;99848.88;;;7.07;74.54
16544;BME280;8384;47.996;7.786;2023-02-15T13:35:26;99845.50;;;7.11;73.89
16544;BME280;8384;47.996;7.786;2023-02-15T13:38:32;99851.38;;;7.08;72.42
16544;BME280;8384;47.996;7.786;2023-02-15T13:41:09;99859.72;;;7.27;72.56
16544;BME280;8384;47.996;7.786;2023-02-15T13:43:56;99835.06;;;7.08;72.21
16544;BME280;8384;47.996;7.786;2023-02-15T13:46:45;99845.66;;;7.43;71.14
16544;BME280;8384;47.996;7.786;2023-02-15T13:50:10;99838.81;;;7.86;70.58
16544;BME280;8384;47.996;7.786;2023-02-15T13:52:24;99832.03;;;8.34;68.04
16544;BME280;8384;47.996;7.786;2023-02-15T13:55:40;99827.81;;;8.70;67.08
16544;BME280;8384;47.996;7.786;2023-02-15T13:58:19;99820.97;;;8.61;66.22
16544;BME280;8384;47.996;7.786;2023-02-15T14:13:50;99820.03;;;8.74;64.74
16544;BME280;8384;47.996;7.786;2023-02-15T14:21:48;99820.81;;;8.56;67.09
16544;BME280;8384;47.996;7.786;2023-02-15T14:24:25;99819.47;;;8.65;66.32
16544;BME280;8384;47.996;7.786;2023-02-15T14:30:30;99802.03;;;8.73;64.48
16544;BME280;8384;47.996;7.786;2023-02-15T14:33:08;99814.69;;;8.61;65.14
16544;BME280;8384;47.996;7.786;2023-02-15T14:35:35;99809.53;;;8.78;64.94
16544;BME280;8384;47.996;7.786;2023-02-15T14:40:52;99813.81;;;9.67;62.63
16544;BME280;8384;47.996;7.786;2023-02-15T14:43:41;99791.47;;;9.77;60.14
16544;BME280;8384;47.996;7.786;2023-02-15T14:46:19;99815.19;;;10.06;59.88
16544;BME280;8384;47.996;7.786;2023-02-15T14:48:50;99799.44;;;10.39;58.77